Time;durP1;ratioP1;P1;durP2;ratioP2;P2;SDS_P1;SDS_P2;PMS_P1;PMS_P2;Temp;Humidity;BMP_temperature;BMP_pressure;BME280_temperature;BME280_humidity;BME280_pressure;Samples;Min_cycle;Max_cycle;Signal;HPM_P1;HPM_P2
2021/06/17 00:01:41;;;;;;;11.90;11.27;;;22.50;75.60;;;;;;6222990;22;20447;-92
2021/06/17 00:04:18;;;;;;;13.20;12.10;;;22.90;74.80;;;;;;6223503;22;20384;-91
2021/06/17 00:06:50;;;;;;;12.80;11.80;;;22.30;71.90;;;;;;6275682;22;20392;-91
2021/06/17 00:09:38;;;;;;;11.80;11.10;;;22.50;72.60;;;;;;6275999;22;20361;-91
2021/06/17 00:12:08;;;;;;;12.27;11.40;;;22.20;72.30;;;;;;6251870;22;20856;-92
2021/06/17 00:14:39;;;;;;;11.57;10.97;;;22.50;73.10;;;;;;6271804;22;20409;-91
2021/06/17 00:17:07;;;;;;;12.57;11.57;;;22.60;72.90;;;;;;6223029;22;20385;-92
2021/06/17 00:19:34;;;;;;;12.27;11.60;;;21.20;74.80;;;;;;6270308;22;20407;-91
2021/06/17 00:22:03;;;;;;;12.40;11.80;;;22.60;75.00;;;;;;6270692;22;20432;-93
2021/06/17 00:24:31;;;;;;;11.90;10.93;;;23.00;75.10;;;;;;6271842;22;20381;-93
2021/06/17 00:27:05;;;;;;;11.77;10.77;;;22.60;77.60;;;;;;6302598;22;20384;-92
2021/06/17 00:29:40;;;;;;;11.90;11.20;;;22.50;71.60;;;;;;6281852;22;20341;-93
2021/06/17 00:32:11;;;;;;;11.50;10.80;;;22.70;76.40;;;;;;6279883;22;20392;-92
2021/06/17 00:34:38;;;;;;;12.90;12.00;;;22.50;73.00;;;;;;6277600;22;20385;-92
2021/06/17 00:37:07;;;;;;;11.53;10.80;;;22.40;73.70;;;;;;6302709;22;20396;-92
2021/06/17 00:39:37;;;;;;;10.97;10.47;;;22.50;73.20;;;;;;6271495;22;20361;-91
2021/06/17 00:42:05;;;;;;;11.07;10.50;;;22.70;75.30;;;;;;6295045;22;20426;-92
2021/06/17 00:44:33;;;;;;;12.57;11.53;;;22.40;72.40;;;;;;6271580;22;20464;-92
2021/06/17 00:47:00;;;;;;;12.03;11.13;;;23.80;74.20;;;;;;6270244;22;20373;-92
2021/06/17 00:49:29;;;;;;;11.80;11.10;;;22.60;75.50;;;;;;6246786;22;20380;-92
2021/06/17 00:51:55;;;;;;;11.80;10.60;;;22.60;72.40;;;;;;6275422;22;20373;-91
2021/06/17 00:54:32;;;;;;;12.13;11.30;;;23.20;72.90;;;;;;6222721;22;20400;-91
2021/06/17 00:57:09;;;;;;;11.70;11.00;;;26.50;76.80;;;;;;6275284;22;20360;-92
2021/06/17 00:59:37;;;;;;;10.50;10.00;;;22.40;70.70;;;;;;6278713;22;20403;-93
2021/06/17 01:02:08;;;;;;;11.03;10.40;;;22.50;70.50;;;;;;6276841;22;20428;-92
2021/06/17 01:04:37;;;;;;;10.37;9.87;;;22.20;67.70;;;;;;6251049;22;20385;-92
2021/06/17 01:07:05;;;;;;;10.73;10.13;;;22.30;71.90;;;;;;6296805;22;20384;-93
2021/06/17 01:10:06;;;;;;;11.37;10.63;;;24.10;71.20;;;;;;6301067;22;20395;-93
2021/06/17 01:12:46;;;;;;;11.43;10.70;;;22.60;66.10;;;;;;6269763;22;20493;-93
2021/06/17 01:15:19;;;;;;;11.47;10.33;;;22.60;67.50;;;;;;6270376;22;20431;-92
2021/06/17 01:18:04;;;;;;;10.40;9.90;;;20.30;62.30;;;;;;6271207;22;20376;-93
2021/06/17 01:20:50;;;;;;;11.00;10.30;;;22.80;65.40;;;;;;6250074;22;20381;-93
2021/06/17 01:24:03;;;;;;;10.27;9.60;;;24.30;68.60;;;;;;6298847;22;20499;-93
2021/06/17 01:27:00;;;;;;;10.87;10.27;;;22.80;65.40;;;;;;6203929;22;20377;-93
2021/06/17 01:29:30;;;;;;;11.20;10.50;;;22.80;65.60;;;;;;6271941;22;20381;-93
2021/06/17 01:32:11;;;;;;;11.57;10.60;;;20.90;63.90;;;;;;6272723;22;20377;-93
2021/06/17 01:34:46;;;;;;;10.70;10.10;;;22.00;65.30;;;;;;6250477;22;20464;-93
2021/06/17 01:37:31;;;;;;;10.70;10.13;;;24.20;68.60;;;;;;6274614;22;20432;-92
2021/06/17 01:40:07;;;;;;;10.70;10.03;;;22.60;65.80;;;;;;6270930;22;20381;-92
2021/06/17 01:42:41;;;;;;;10.50;9.67;;;21.90;63.30;;;;;;6271592;22;20428;-91
2021/06/17 01:45:11;;;;;;;10.30;9.53;;;22.50;65.10;;;;;;6270576;22;20391;-92
2021/06/17 01:47:39;;;;;;;9.77;9.37;;;23.80;65.80;;;;;;6296402;22;20388;-92
2021/06/17 01:50:12;;;;;;;10.73;9.97;;;24.60;67.20;;;;;;6222978;22;20388;-91
2021/06/17 01:52:39;;;;;;;10.23;9.80;;;22.50;62.50;;;;;;6270732;22;20377;-91
2021/06/17 01:55:07;;;;;;;10.63;10.10;;;22.80;66.20;;;;;;6270836;22;20384;-92
2021/06/17 01:57:38;;;;;;;11.23;10.57;;;23.30;67.60;;;;;;6272502;22;20376;-92
2021/06/17 02:00:07;;;;;;;10.27;9.67;;;23.00;67.30;;;;;;6271853;22;20381;-92
2021/06/17 02:02:38;;;;;;;11.13;10.20;;;22.40;66.70;;;;;;6298177;22;20400;-91
2021/06/17 02:05:07;;;;;;;10.80;10.30;;;23.60;67.00;;;;;;6269332;22;20372;-92
2021/06/17 02:07:40;;;;;;;10.30;9.80;;;22.60;64.80;;;;;;6268897;22;20372;-91
2021/06/17 02:10:07;;;;;;;11.30;10.67;;;23.10;65.60;;;;;;6295987;22;20436;-92
2021/06/17 02:12:38;;;;;;;10.23;9.57;;;22.40;64.60;;;;;;6270210;22;20387;-93
2021/06/17 02:15:07;;;;;;;9.90;9.40;;;22.40;65.00;;;;;;6270338;22;20372;-92
2021/06/17 02:17:57;;;;;;;10.67;10.07;;;22.30;64.60;;;;;;6268985;22;20385;-92
2021/06/17 02:20:24;;;;;;;11.10;10.20;;;22.70;64.80;;;;;;6270167;22;20399;-91
2021/06/17 02:22:54;;;;;;;11.50;10.80;;;22.70;67.50;;;;;;6296182;22;20427;-91
2021/06/17 02:25:22;;;;;;;10.13;9.63;;;23.50;68.20;;;;;;6296011;22;20349;-92
2021/06/17 02:27:55;;;;;;;11.60;10.70;;;24.60;68.40;;;;;;6262790;23;20373;-93
2021/06/17 02:30:26;;;;;;;10.33;9.83;;;23.50;69.10;;;;;;6239483;23;20446;-92
2021/06/17 02:33:00;;;;;;;10.40;9.80;;;22.30;65.80;;;;;;6237422;23;20404;-92
2021/06/17 02:35:28;;;;;;;10.90;10.10;;;23.40;67.40;;;;;;6242204;23;20387;-93
2021/06/17 02:37:59;;;;;;;11.00;10.43;;;24.30;71.60;;;;;;6240693;23;20389;-92
2021/06/17 02:40:32;;;;;;;10.73;10.23;;;22.00;67.50;;;;;;6237560;23;20389;-93
2021/06/17 02:43:10;;;;;;;11.13;10.40;;;22.30;66.30;;;;;;6242851;23;20432;-92
2021/06/17 02:45:43;;;;;;;10.60;9.90;;;22.40;66.50;;;;;;6270871;22;20369;-90
2021/06/17 02:48:09;;;;;;;10.30;9.70;;;22.20;66.50;;;;;;6197067;23;20420;-91
2021/06/17 02:50:36;;;;;;;11.07;10.27;;;24.50;72.10;;;;;;6248240;22;20389;-92
2021/06/17 02:53:05;;;;;;;10.80;10.10;;;19.10;64.10;;;;;;6218782;23;20421;-93
2021/06/17 02:55:32;;;;;;;10.60;10.00;;;22.70;69.90;;;;;;6268331;23;20365;-92
2021/06/17 02:58:15;;;;;;;11.50;10.60;;;22.00;68.50;;;;;;6241445;23;20415;-92
2021/06/17 03:01:08;;;;;;;10.70;10.07;;;20.10;65.00;;;;;;6268149;23;20350;-92
2021/06/17 03:04:06;;;;;;;10.13;9.53;;;23.50;69.60;;;;;;6267938;23;20416;-92
2021/06/17 03:06:39;;;;;;;10.67;10.17;;;22.20;68.30;;;;;;6241685;23;20401;-91
2021/06/17 03:09:15;;;;;;;10.67;9.97;;;22.20;69.40;;;;;;6241139;23;20386;-92
2021/06/17 03:11:47;;;;;;;10.23;9.73;;;23.30;71.00;;;;;;6244592;23;20369;-91
2021/06/17 03:14:18;;;;;;;10.57;10.07;;;21.60;71.10;;;;;;6264599;23;20416;-92
2021/06/17 03:16:49;;;;;;;11.10;10.50;;;21.40;70.50;;;;;;6240014;23;20389;-92
2021/06/17 03:19:17;;;;;;;11.20;10.70;;;23.40;74.20;;;;;;6211514;23;20378;-94
2021/06/17 03:21:52;;;;;;;11.13;10.40;;;22.20;72.60;;;;;;6237692;23;20429;-92
2021/06/17 03:24:29;;;;;;;10.97;10.17;;;21.70;70.10;;;;;;6240410;23;20377;-91
2021/06/17 03:26:59;;;;;;;13.53;10.87;;;22.20;70.40;;;;;;6241205;23;20446;-91
2021/06/17 03:29:32;;;;;;;10.40;9.70;;;21.70;71.40;;;;;;6242789;23;20413;-92
2021/06/17 03:32:00;;;;;;;11.33;10.63;;;23.10;71.10;;;;;;6266752;23;20365;-92
2021/06/17 03:34:29;;;;;;;10.40;9.90;;;21.90;70.30;;;;;;6268547;23;20385;-92
2021/06/17 03:36:56;;;;;;;12.10;11.10;;;22.90;72.50;;;;;;6240282;23;20412;-92
2021/06/17 03:39:24;;;;;;;10.70;9.77;;;22.40;70.90;;;;;;6266496;23;20924;-92
2021/06/17 03:41:55;;;;;;;11.63;11.03;;;21.90;71.00;;;;;;6265652;23;20409;-93
2021/06/17 03:44:23;;;;;;;12.53;11.33;;;22.00;71.20;;;;;;6214061;23;20424;-92
2021/06/17 03:46:50;;;;;;;11.33;10.53;;;22.80;73.40;;;;;;6241652;23;20701;-93
2021/06/17 03:49:25;;;;;;;11.70;10.70;;;22.00;75.80;;;;;;6238800;23;20402;-92
2021/06/17 03:51:56;;;;;;;10.97;10.33;;;22.40;73.00;;;;;;6238316;23;20384;-91
2021/06/17 03:54:24;;;;;;;12.37;11.67;;;21.50;72.80;;;;;;6239844;23;20378;-93
2021/06/17 03:57:09;;;;;;;12.60;11.60;;;21.70;72.80;;;;;;6241011;23;20841;-92
2021/06/17 03:59:43;;;;;;;11.63;10.47;;;21.70;70.40;;;;;;6264836;22;20396;-93
2021/06/17 04:02:15;;;;;;;9.77;9.00;;;21.80;71.90;;;;;;6244316;23;20413;-93
2021/06/17 04:04:47;;;;;;;10.03;9.13;;;21.90;71.90;;;;;;6270504;23;20370;-93
2021/06/17 04:07:19;;;;;;;11.07;10.20;;;21.80;75.50;;;;;;6268363;23;20350;-92
2021/06/17 04:09:49;;;;;;;11.13;10.57;;;21.40;71.10;;;;;;6239161;23;20386;-92
2021/06/17 04:12:21;;;;;;;11.27;10.60;;;22.30;70.00;;;;;;6239860;23;20389;-91
2021/06/17 04:14:59;;;;;;;11.50;10.50;;;21.40;70.80;;;;;;6234671;23;20405;-92
2021/06/17 04:17:40;;;;;;;10.97;10.47;;;24.10;74.50;;;;;;6236822;23;20392;-90
2021/06/17 04:20:14;;;;;;;11.23;10.20;;;21.00;68.30;;;;;;6232671;23;20416;-88
2021/06/17 04:22:44;;;;;;;10.63;9.83;;;21.90;69.00;;;;;;6239278;23;20518;-91
2021/06/17 04:25:11;;;;;;;10.50;9.53;;;20.70;69.10;;;;;;6234985;23;20393;-91
2021/06/17 04:27:38;;;;;;;11.90;10.50;;;24.30;74.50;;;;;;6238578;23;20394;-89
2021/06/17 04:30:08;;;;;;;8.93;8.40;;;22.50;70.00;;;;;;6242404;23;20406;-91
2021/06/17 04:32:35;;;;;;;12.40;11.63;;;22.10;68.00;;;;;;6246290;22;20413;-90
2021/06/17 04:35:01;;;;;;;9.93;9.23;;;23.30;70.20;;;;;;6245868;23;20397;-91
2021/06/17 04:37:28;;;;;;;10.87;9.10;;;23.60;69.40;;;;;;6245911;22;20436;-91
2021/06/17 04:39:56;;;;;;;10.30;9.67;;;24.30;70.90;;;;;;6220821;23;20752;-90
2021/06/17 04:42:34;;;;;;;8.90;8.47;;;23.30;65.00;;;;;;6273852;22;20433;-92
2021/06/17 04:45:02;;;;;;;9.13;8.63;;;23.00;63.30;;;;;;6266750;23;20803;-91
2021/06/17 04:47:28;;;;;;;9.33;8.47;;;23.70;61.20;;;;;;6216102;23;20389;-89
2021/06/17 04:49:55;;;;;;;9.03;8.30;;;22.30;60.20;;;;;;6269609;23;20460;-91
2021/06/17 04:53:06;;;;;;;9.23;8.60;;;23.90;59.80;;;;;;6244756;22;20139;-91
2021/06/17 04:55:33;;;;;;;11.00;10.40;;;24.30;58.10;;;;;;6242157;23;20377;-92
2021/06/17 04:57:59;;;;;;;9.87;9.07;;;23.80;57.50;;;;;;6237506;23;20465;-90
2021/06/17 05:00:25;;;;;;;8.67;7.93;;;26.00;59.10;;;;;;6236812;23;20389;-93
2021/06/17 05:02:56;;;;;;;9.17;8.67;;;25.40;57.20;;;;;;6234727;23;20205;-93
2021/06/17 05:05:21;;;;;;;8.10;7.67;;;25.20;57.70;;;;;;6229634;23;20369;-90
2021/06/17 05:12:57;;;;;;;8.90;8.27;;;25.80;55.70;;;;;;6256391;23;20332;-93
2021/06/17 05:15:23;;;;;;;8.07;7.70;;;24.40;54.10;;;;;;6257877;23;20404;-92
2021/06/17 05:17:49;;;;;;;10.27;9.20;;;26.30;54.70;;;;;;6257728;23;20390;-92
2021/06/17 05:20:18;;;;;;;9.40;8.60;;;26.60;55.20;;;;;;6236002;23;20147;-91
2021/06/17 05:22:45;;;;;;;8.67;8.00;;;26.80;54.10;;;;;;6233439;23;20221;-92
2021/06/17 05:25:39;;;;;;;8.30;7.83;;;28.50;53.70;;;;;;6235362;23;20381;-91
2021/06/17 05:28:05;;;;;;;7.90;7.60;;;27.50;53.60;;;;;;6234911;23;20390;-93
2021/06/17 05:30:42;;;;;;;7.43;7.10;;;27.70;53.70;;;;;;6265988;23;20373;-93
2021/06/17 05:33:21;;;;;;;7.53;6.93;;;28.20;51.60;;;;;;6236671;23;20407;-92
2021/06/17 05:35:56;;;;;;;7.87;7.20;;;28.40;50.30;;;;;;6236564;23;20370;-93
2021/06/17 05:38:23;;;;;;;8.80;8.03;;;28.30;50.80;;;;;;6236016;23;20411;-91
2021/06/17 05:40:58;;;;;;;8.90;8.50;;;28.80;50.10;;;;;;6238116;23;20417;-92
2021/06/17 05:43:23;;;;;;;9.00;8.27;;;28.80;50.30;;;;;;6235988;23;20503;-92
2021/06/17 05:45:50;;;;;;;7.03;6.73;;;29.90;48.80;;;;;;6234370;23;20388;-91
2021/06/17 05:48:29;;;;;;;6.27;5.90;;;29.90;47.60;;;;;;6234629;23;20161;-94
2021/06/17 05:50:55;;;;;;;6.60;6.10;;;30.80;43.60;;;;;;6232812;23;20373;-89
2021/06/17 05:53:24;;;;;;;7.63;7.10;;;30.20;44.40;;;;;;6265028;23;20373;-92
2021/06/17 05:55:58;;;;;;;8.47;7.97;;;30.40;44.10;;;;;;6235798;23;20417;-94
2021/06/17 05:58:26;;;;;;;6.80;6.70;;;30.00;43.30;;;;;;6234295;23;20378;-93
2021/06/17 06:01:00;;;;;;;9.90;6.67;;;31.40;41.30;;;;;;6234560;23;20392;-91
2021/06/17 06:03:34;;;;;;;6.90;6.70;;;31.90;41.30;;;;;;6190463;23;20409;-91
2021/06/17 06:06:26;;;;;;;6.57;6.30;;;33.20;40.40;;;;;;6215099;23;20391;-91
2021/06/17 06:09:37;;;;;;;5.80;5.60;;;33.40;38.70;;;;;;6255651;23;20393;-91
2021/06/17 06:12:06;;;;;;;6.60;6.00;;;33.10;37.90;;;;;;6241490;23;20880;-90
2021/06/17 06:14:34;;;;;;;6.33;5.83;;;33.40;37.70;;;;;;6232434;23;20437;-90
2021/06/17 06:17:00;;;;;;;5.73;5.40;;;34.20;36.30;;;;;;6236371;23;20473;-90
2021/06/17 06:19:31;;;;;;;6.77;6.17;;;34.30;38.60;;;;;;6205052;23;20397;-91
2021/06/17 06:22:00;;;;;;;5.73;5.53;;;34.40;38.20;;;;;;6208347;23;20383;-91
2021/06/17 06:24:30;;;;;;;5.70;5.50;;;35.80;37.40;;;;;;6234488;23;20383;-92
2021/06/17 06:27:00;;;;;;;6.83;6.27;;;35.60;37.00;;;;;;6233660;23;20367;-91
2021/06/17 06:29:30;;;;;;;5.80;5.60;;;36.00;36.40;;;;;;6234875;23;20407;-92
2021/06/17 06:31:57;;;;;;;5.00;4.90;;;35.90;33.60;;;;;;6229998;23;20543;-92
2021/06/17 06:34:23;;;;;;;6.80;6.20;;;36.10;34.20;;;;;;6233640;23;20405;-91
2021/06/17 06:36:49;;;;;;;5.20;4.97;;;36.70;32.90;;;;;;6235506;23;20405;-88
2021/06/17 06:39:16;;;;;;;5.73;5.43;;;38.40;34.40;;;;;;6232102;23;20402;-90
2021/06/17 06:41:43;;;;;;;5.50;5.27;;;37.60;33.20;;;;;;6228231;23;20573;-89
2021/06/17 06:44:10;;;;;;;5.70;5.50;;;36.60;32.80;;;;;;6233727;23;20382;-91
2021/06/17 06:46:43;;;;;;;5.70;5.30;;;37.10;33.60;;;;;;6233578;23;20406;-92
2021/06/17 06:49:09;;;;;;;6.27;5.70;;;36.80;33.70;;;;;;6233222;23;20421;-90
2021/06/17 06:51:38;;;;;;;6.17;5.90;;;36.90;34.50;;;;;;6237923;23;20434;-88
2021/06/17 06:54:05;;;;;;;4.87;4.63;;;37.60;34.10;;;;;;6236237;23;20141;-91
2021/06/17 06:56:32;;;;;;;5.73;5.37;;;37.50;32.20;;;;;;6234752;23;20405;-90
2021/06/17 06:59:00;;;;;;;5.20;4.70;;;36.90;32.80;;;;;;6235654;23;20499;-91
2021/06/17 07:01:37;;;;;;;4.63;4.57;;;37.90;36.20;;;;;;6206242;23;20763;-91
2021/06/17 07:04:19;;;;;;;5.20;5.10;;;37.50;31.60;;;;;;6233321;23;20382;-91
2021/06/17 07:06:47;;;;;;;6.03;5.73;;;37.60;32.40;;;;;;6237040;23;20357;-91
2021/06/17 07:09:16;;;;;;;5.53;5.33;;;37.90;32.90;;;;;;6238082;23;20374;-92
2021/06/17 07:11:48;;;;;;;5.40;5.00;;;39.10;33.00;;;;;;6233963;23;20753;-92
2021/06/17 07:14:20;;;;;;;5.67;5.47;;;37.60;31.00;;;;;;6259198;23;20798;-92
2021/06/17 07:16:46;;;;;;;5.90;5.80;;;38.50;31.40;;;;;;6236564;23;20729;-90
2021/06/17 07:19:12;;;;;;;5.23;5.13;;;38.30;36.00;;;;;;6233925;23;20480;-90
2021/06/17 07:21:38;;;;;;;5.70;5.60;;;37.80;35.80;;;;;;6236934;23;20209;-90
2021/06/17 07:24:07;;;;;;;5.73;5.53;;;38.60;36.30;;;;;;6235370;23;20319;-90
2021/06/17 07:26:37;;;;;;;5.70;5.60;;;37.30;34.40;;;;;;6232833;23;20523;-90
2021/06/17 07:29:06;;;;;;;6.63;6.10;;;37.20;31.70;;;;;;6232852;23;20392;-90
2021/06/17 07:31:36;;;;;;;6.10;5.83;;;37.80;35.90;;;;;;6235569;23;20422;-90
2021/06/17 07:34:10;;;;;;;5.83;5.73;;;37.00;33.30;;;;;;6262286;23;20381;-91
2021/06/17 07:36:43;;;;;;;5.87;5.63;;;37.90;35.30;;;;;;6237313;23;20366;-91
2021/06/17 07:39:19;;;;;;;5.67;5.47;;;39.50;32.00;;;;;;6213997;23;20409;-90
2021/06/17 07:41:50;;;;;;;5.13;4.80;;;38.10;32.00;;;;;;6264801;23;20384;-90
2021/06/17 07:44:17;;;;;;;5.27;5.13;;;39.00;32.20;;;;;;6242450;22;20378;-91
2021/06/17 07:46:45;;;;;;;6.50;5.03;;;37.50;30.80;;;;;;6242047;22;20389;-90
2021/06/17 07:49:11;;;;;;;5.30;5.20;;;35.70;33.30;;;;;;6219667;23;20397;-89
2021/06/17 07:51:37;;;;;;;5.83;5.43;;;37.60;33.20;;;;;;6242337;22;20413;-89
2021/06/17 07:54:18;;;;;;;5.43;5.20;;;37.70;33.80;;;;;;6268220;23;20616;-90
2021/06/17 07:56:50;;;;;;;5.67;5.47;;;34.80;30.40;;;;;;6228872;23;20445;-92
2021/06/17 07:59:18;;;;;;;6.80;6.13;;;39.90;32.20;;;;;;6232881;23;20378;-90
2021/06/17 08:01:51;;;;;;;4.63;4.50;;;38.00;32.40;;;;;;6237123;23;20374;-90
2021/06/17 08:04:24;;;;;;;5.73;5.37;;;38.30;30.90;;;;;;6233292;23;20374;-90
2021/06/17 08:06:49;;;;;;;7.40;5.40;;;40.50;31.50;;;;;;6206077;23;20410;-92
2021/06/17 08:09:33;;;;;;;4.80;4.70;;;39.50;31.60;;;;;;6268031;23;20358;-92
2021/06/17 08:12:01;;;;;;;5.07;4.97;;;40.50;29.70;;;;;;6237325;23;20217;-89
2021/06/17 08:14:28;;;;;;;5.90;5.70;;;40.20;30.70;;;;;;6231665;23;20434;-90
2021/06/17 08:16:56;;;;;;;5.80;5.40;;;40.10;31.90;;;;;;6228634;23;20860;-92
2021/06/17 08:19:28;;;;;;;5.63;5.20;;;40.40;30.00;;;;;;6234912;23;20404;-92
2021/06/17 08:21:57;;;;;;;5.20;5.07;;;42.00;31.70;;;;;;6260042;23;20411;-92
2021/06/17 08:24:24;;;;;;;4.80;4.60;;;40.70;31.40;;;;;;6229779;23;20390;-91
2021/06/17 08:26:51;;;;;;;5.30;5.10;;;43.30;32.10;;;;;;6228170;23;20461;-91
2021/06/17 08:29:16;;;;;;;4.87;4.60;;;41.20;32.70;;;;;;6231996;23;20381;-91
2021/06/17 08:31:43;;;;;;;5.07;4.77;;;40.70;31.30;;;;;;6228480;23;20432;-91
2021/06/17 08:34:14;;;;;;;5.50;5.17;;;41.30;31.60;;;;;;6259187;23;20165;-90
2021/06/17 08:36:47;;;;;;;4.80;4.50;;;42.40;29.80;;;;;;6231828;23;20385;-89
2021/06/17 08:39:15;;;;;;;5.70;5.27;;;42.80;31.00;;;;;;6233445;23;20822;-91
2021/06/17 08:41:41;;;;;;;5.10;4.87;;;43.40;32.10;;;;;;6235651;23;20400;-90
2021/06/17 08:44:07;;;;;;;5.37;5.07;;;41.70;29.20;;;;;;6234391;23;20381;-91
2021/06/17 08:46:32;;;;;;;5.63;5.13;;;41.80;31.20;;;;;;6228943;23;20374;-89
2021/06/17 08:48:58;;;;;;;4.23;4.13;;;42.20;29.40;;;;;;6229269;23;20393;-90
2021/06/17 08:51:24;;;;;;;4.90;4.60;;;42.60;30.80;;;;;;6227762;23;20185;-91
2021/06/17 08:53:55;;;;;;;4.40;4.23;;;42.70;27.30;;;;;;6263421;23;20166;-92
2021/06/17 08:56:24;;;;;;;4.20;4.00;;;44.90;27.80;;;;;;6239061;23;20158;-91
2021/06/17 08:59:14;;;;;;;5.00;4.70;;;45.30;30.90;;;;;;6240937;22;20380;-93
2021/06/17 09:02:05;;;;;;;4.73;4.63;;;42.30;26.60;;;;;;6116884;23;20421;-93
2021/06/17 09:04:37;;;;;;;4.47;4.37;;;42.80;27.80;;;;;;6133419;23;20376;-92
2021/06/17 09:07:15;;;;;;;4.87;4.67;;;42.30;27.90;;;;;;6265694;23;20373;-92
2021/06/17 09:12:45;;;;;;;5.50;5.10;;;42.40;28.20;;;;;;6233853;23;20476;-93
2021/06/17 09:15:17;;;;;;;5.00;4.77;;;41.10;29.70;;;;;;6204188;23;20417;-91
2021/06/17 09:17:42;;;;;;;7.47;6.97;;;39.90;29.10;;;;;;6232553;23;20387;-93
2021/06/17 09:20:24;;;;;;;;;;;;;;;;;;;;;
2021/06/17 09:23:20;;;;;;;5.70;5.37;;;43.20;29.70;;;;;;6230780;23;20130;-91
2021/06/17 09:25:49;;;;;;;4.90;4.80;;;38.90;28.10;;;;;;6232252;23;20395;-91
2021/06/17 09:28:17;;;;;;;6.00;5.43;;;38.30;28.80;;;;;;6227788;23;20405;-91
2021/06/17 09:30:51;;;;;;;5.23;4.90;;;41.40;29.70;;;;;;6233104;23;20371;-91
2021/06/17 09:33:17;;;;;;;5.67;5.37;;;41.60;30.60;;;;;;6229321;23;20440;-92
2021/06/17 09:35:53;;;;;;;5.70;5.40;;;41.90;33.40;;;;;;6227337;23;20375;-93
2021/06/17 09:38:24;;;;;;;5.60;5.30;;;42.20;30.10;;;;;;6228116;23;20147;-91
2021/06/17 09:40:53;;;;;;;5.20;5.00;;;44.90;29.40;;;;;;6227723;23;20379;-93
2021/06/17 09:43:27;;;;;;;5.20;4.77;;;41.00;29.20;;;;;;6226287;23;20447;-95
2021/06/17 09:46:14;;;;;;;5.40;5.20;;;43.60;28.60;;;;;;6225628;23;20370;-92
2021/06/17 09:48:51;;;;;;;5.27;4.90;;;42.10;27.90;;;;;;6233880;23;20433;-92
2021/06/17 09:51:37;;;;;;;6.00;5.70;;;45.20;29.00;;;;;;6209125;23;20442;-90
2021/06/17 09:54:13;;;;;;;4.50;4.50;;;41.80;27.80;;;;;;6233200;23;20379;-89
2021/06/17 09:57:01;;;;;;;6.67;6.23;;;41.40;27.80;;;;;;6233527;23;20373;-94
2021/06/17 09:59:51;;;;;;;4.93;4.63;;;41.40;27.40;;;;;;6233519;23;20433;-91
2021/06/17 10:02:49;;;;;;;5.43;5.13;;;42.30;28.10;;;;;;6233722;23;20397;-94
2021/06/17 10:05:22;;;;;;;5.07;4.77;;;42.10;27.20;;;;;;6237095;23;20355;-90
2021/06/17 10:07:49;;;;;;;5.30;5.20;;;42.40;27.60;;;;;;6232360;23;20386;-92
2021/06/17 10:10:22;;;;;;;5.33;5.13;;;42.50;27.40;;;;;;6209372;23;20518;-91
2021/06/17 10:12:47;;;;;;;7.20;5.30;;;42.90;27.70;;;;;;6212276;23;20437;-94
2021/06/17 10:15:19;;;;;;;5.67;5.47;;;43.70;27.90;;;;;;6239372;23;20393;-92
2021/06/17 10:17:45;;;;;;;4.47;4.37;;;44.20;29.50;;;;;;6213298;23;20155;-93
2021/06/17 10:20:19;;;;;;;5.80;5.60;;;43.70;26.60;;;;;;6266974;22;20430;-92
2021/06/17 10:22:52;;;;;;;5.90;5.50;;;46.20;27.90;;;;;;6264908;23;20119;-93
2021/06/17 10:26:05;;;;;;;5.80;5.60;;;42.70;27.10;;;;;;6264529;23;20358;-92
2021/06/17 10:28:40;;;;;;;5.27;5.07;;;42.50;27.10;;;;;;6260493;23;20428;-90
2021/06/17 10:31:06;;;;;;;5.17;4.90;;;42.50;27.70;;;;;;6243060;23;20407;-91
2021/06/17 10:33:51;;;;;;;5.90;5.70;;;43.10;27.30;;;;;;6270550;22;20445;-89
2021/06/17 10:36:38;;;;;;;5.43;5.23;;;43.50;26.80;;;;;;6268076;22;20409;-93
2021/06/17 10:39:17;;;;;;;5.83;5.43;;;46.40;28.50;;;;;;6238349;23;20419;-91
2021/06/17 10:42:35;;;;;;;5.43;5.03;;;43.00;28.40;;;;;;6267957;23;20381;-92
2021/06/17 10:45:25;;;;;;;5.77;5.50;;;44.80;27.80;;;;;;6188489;23;20444;-92
2021/06/17 10:47:53;;;;;;;5.60;5.40;;;44.00;27.10;;;;;;6260957;23;20366;-93
2021/06/17 10:50:42;;;;;;;5.20;5.00;;;44.60;27.60;;;;;;6235026;23;20416;-92
2021/06/17 10:53:26;;;;;;;4.93;4.73;;;43.30;26.90;;;;;;6232469;23;20429;-89
2021/06/17 10:56:23;;;;;;;5.87;5.67;;;42.90;26.90;;;;;;6233511;23;20378;-90
2021/06/17 10:58:51;;;;;;;6.13;5.70;;;43.10;27.10;;;;;;6229027;23;20382;-91
2021/06/17 11:01:24;;;;;;;5.23;5.10;;;42.50;26.50;;;;;;6231539;23;20464;-92
2021/06/17 11:04:04;;;;;;;5.37;5.10;;;44.30;28.50;;;;;;6257016;23;20461;-92
2021/06/17 11:07:02;;;;;;;10.63;9.73;;;45.00;27.80;;;;;;6261058;23;20361;-93
2021/06/17 11:10:10;;;;;;;4.63;4.33;;;44.00;26.80;;;;;;6219841;23;20397;-89
2021/06/17 11:12:55;;;;;;;4.30;4.20;;;45.80;27.00;;;;;;6237669;23;20477;-94
2021/06/17 11:15:37;;;;;;;4.63;4.30;;;45.30;26.90;;;;;;6237258;23;20395;-90
2021/06/17 11:18:15;;;;;;;5.27;4.80;;;46.40;26.40;;;;;;6235927;23;20382;-93
2021/06/17 11:20:45;;;;;;;5.70;5.47;;;46.70;26.00;;;;;;6231708;23;20426;-91
2021/06/17 11:23:15;;;;;;;5.77;5.47;;;44.70;26.20;;;;;;6232440;23;20362;-93
2021/06/17 11:25:45;;;;;;;4.30;4.20;;;45.90;26.30;;;;;;6234050;23;20442;-91
2021/06/17 11:28:15;;;;;;;6.33;5.87;;;46.00;27.10;;;;;;6233524;23;20379;-89
2021/06/17 11:30:46;;;;;;;3.87;3.80;;;46.20;25.90;;;;;;6204689;23;20390;-94
2021/06/17 11:33:18;;;;;;;5.57;4.70;;;45.80;25.80;;;;;;6234585;23;20499;-92
2021/06/17 11:36:10;;;;;;;4.57;4.30;;;45.20;26.80;;;;;;6234717;23;20398;-94
2021/06/17 11:38:40;;;;;;;3.80;3.70;;;45.60;25.70;;;;;;6230748;23;20436;-92
2021/06/17 11:41:15;;;;;;;3.93;3.83;;;42.60;26.10;;;;;;6233729;23;20355;-91
2021/06/17 11:43:54;;;;;;;3.67;3.50;;;42.80;26.10;;;;;;6232528;23;20412;-93
2021/06/17 11:46:32;;;;;;;3.83;3.63;;;44.00;25.70;;;;;;6236241;23;20363;-92
2021/06/17 11:49:08;;;;;;;4.30;4.20;;;45.20;26.50;;;;;;6234714;23;20369;-92
2021/06/17 11:52:17;;;;;;;4.63;4.43;;;44.10;26.30;;;;;;6234420;23;20378;-91
2021/06/17 11:54:46;;;;;;;4.00;3.90;;;44.50;26.00;;;;;;6143936;23;20362;-92
2021/06/17 11:57:13;;;;;;;4.57;4.37;;;44.50;26.40;;;;;;6224384;23;20385;-88
2021/06/17 11:59:48;;;;;;;4.30;4.20;;;44.60;26.10;;;;;;6205902;23;20378;-90
2021/06/17 12:02:28;;;;;;;4.33;4.13;;;46.00;26.70;;;;;;6234695;23;20458;-93
2021/06/17 12:04:59;;;;;;;4.10;4.10;;;46.10;25.90;;;;;;6231927;23;20414;-92
2021/06/17 12:07:36;;;;;;;5.30;5.10;;;45.20;26.50;;;;;;6232476;23;20378;-94
2021/06/17 12:10:13;;;;;;;4.10;3.90;;;45.90;26.80;;;;;;6235705;23;20418;-91
2021/06/17 12:12:47;;;;;;;4.50;4.10;;;45.80;26.60;;;;;;6234166;23;20452;-93
2021/06/17 12:15:20;;;;;;;4.20;4.10;;;44.70;26.10;;;;;;6234828;23;20469;-93
2021/06/17 12:18:04;;;;;;;4.00;3.80;;;44.60;27.10;;;;;;6233920;23;20386;-92
2021/06/17 12:20:33;;;;;;;4.33;4.23;;;43.80;25.90;;;;;;6230946;23;20378;-92
2021/06/17 12:22:59;;;;;;;4.00;3.73;;;43.70;26.50;;;;;;6230962;23;20417;-91
2021/06/17 12:25:32;;;;;;;3.77;3.57;;;43.30;27.80;;;;;;6235334;23;20371;-92
2021/06/17 12:28:20;;;;;;;3.90;3.90;;;42.80;27.30;;;;;;6238361;23;20391;-91
2021/06/17 12:30:59;;;;;;;4.77;4.23;;;41.70;26.50;;;;;;6213498;23;20474;-94
2021/06/17 12:33:32;;;;;;;4.70;4.60;;;42.40;27.10;;;;;;6213815;23;20494;-91
2021/06/17 12:36:31;;;;;;;4.50;4.40;;;42.70;27.20;;;;;;6237306;23;20422;-90
2021/06/17 12:39:19;;;;;;;4.23;4.13;;;44.70;27.60;;;;;;6232219;23;20375;-94
2021/06/17 12:41:48;;;;;;;4.50;4.30;;;43.30;26.70;;;;;;6235453;23;20398;-91
2021/06/17 12:44:47;;;;;;;4.07;3.97;;;45.00;28.10;;;;;;6237127;23;20375;-92
2021/06/17 12:47:25;;;;;;;3.53;3.53;;;45.20;27.30;;;;;;6233053;23;20382;-91
2021/06/17 12:53:00;;;;;;;4.70;4.60;;;44.20;27.20;;;;;;6237570;23;20449;-90
2021/06/17 12:55:38;;;;;;;5.07;4.60;;;43.80;27.50;;;;;;6224362;23;20393;-88
2021/06/17 12:58:12;;;;;;;4.47;4.37;;;43.60;26.60;;;;;;6225772;23;20469;-92
2021/06/17 13:00:39;;;;;;;5.10;5.10;;;44.00;26.70;;;;;;6227960;23;20362;-89
2021/06/17 13:03:04;;;;;;;5.03;4.83;;;41.50;27.00;;;;;;6227362;23;20383;-92
2021/06/17 13:05:41;;;;;;;5.17;5.07;;;42.30;28.30;;;;;;6226010;23;20222;-91
2021/06/17 13:08:11;;;;;;;3.90;3.90;;;42.40;27.30;;;;;;6225306;23;20166;-88
2021/06/17 13:10:46;;;;;;;5.20;4.90;;;45.30;28.50;;;;;;6231890;23;20383;-91
2021/06/17 13:13:31;;;;;;;4.80;4.50;;;43.40;27.80;;;;;;6231469;23;20457;-89
2021/06/17 13:15:59;;;;;;;4.57;4.47;;;42.50;27.20;;;;;;6233546;23;20450;-90
2021/06/17 13:18:36;;;;;;;5.37;5.00;;;44.10;29.70;;;;;;6237864;23;20374;-94
2021/06/17 13:21:14;;;;;;;5.67;5.47;;;41.30;28.20;;;;;;6208367;23;20391;-94
2021/06/17 13:24:16;;;;;;;5.90;5.80;;;41.10;28.40;;;;;;6230176;23;20427;-92
2021/06/17 13:26:54;;;;;;;7.23;6.73;;;42.20;27.90;;;;;;6229588;23;20417;-92
2021/06/17 13:29:21;;;;;;;6.73;6.33;;;42.10;30.20;;;;;;6205147;23;20790;-92